createdAt,value
2022-09-10T00:01:59.359Z,1.60
2022-09-10T00:04:30.176Z,1.50
2022-09-10T00:06:59.989Z,1.00
2022-09-10T00:09:29.605Z,1.20
2022-09-10T00:11:59.411Z,1.20
2022-09-10T00:14:31.623Z,1.50
2022-09-10T00:17:01.803Z,1.57
2022-09-10T00:19:33.008Z,1.37
2022-09-10T00:22:02.642Z,1.47
2022-09-10T00:24:33.818Z,1.27
2022-09-10T00:27:03.569Z,1.63
2022-09-10T00:29:35.721Z,1.33
2022-09-10T00:32:07.019Z,1.40
2022-09-10T00:34:36.937Z,1.47
2022-09-10T00:37:06.594Z,1.50
2022-09-10T00:39:36.359Z,1.50
2022-09-10T00:42:06.389Z,1.50
2022-09-10T00:45:01.490Z,1.60
2022-09-10T00:47:36.786Z,1.20
2022-09-10T00:50:15.212Z,1.33
2022-09-10T00:52:47.489Z,1.63
2022-09-10T00:55:19.225Z,1.33
2022-09-10T00:57:52.158Z,1.60
2022-09-10T01:00:25.425Z,1.43
2022-09-10T01:02:55.544Z,1.57
2022-09-10T01:05:25.957Z,1.33
2022-09-10T01:07:57.032Z,1.57
2022-09-10T01:10:30.737Z,1.90
2022-09-10T01:13:33.183Z,1.40
2022-09-10T01:16:19.434Z,1.63
2022-09-10T01:18:57.199Z,1.80
2022-09-10T01:21:31.675Z,1.60
2022-09-10T01:24:40.477Z,1.70
2022-09-10T01:27:41.633Z,1.37
2022-09-10T01:30:15.827Z,1.57
2022-09-10T01:32:57.934Z,1.80
2022-09-10T01:35:37.917Z,1.73
2022-09-10T01:38:13.613Z,2.00
2022-09-10T01:40:44.556Z,1.40
2022-09-10T01:43:22.684Z,1.73
2022-09-10T01:46:10.934Z,1.60
2022-09-10T01:48:57.830Z,1.77
2022-09-10T01:51:34.922Z,1.77
2022-09-10T01:54:25.439Z,1.60
2022-09-10T01:57:07.525Z,1.57
2022-09-10T01:59:47.018Z,2.00
2022-09-10T02:02:21.713Z,1.80
2022-09-10T02:04:53.595Z,2.30
2022-09-10T02:07:26.951Z,1.40
2022-09-10T02:09:57.617Z,1.50
2022-09-10T02:12:29.124Z,1.53
2022-09-10T02:15:12.923Z,1.93
2022-09-10T02:17:58.981Z,2.73
2022-09-10T02:20:31.277Z,1.87
2022-09-10T02:23:02.658Z,2.03
2022-09-10T02:25:37.558Z,2.20
2022-09-10T02:28:08.910Z,2.07
2022-09-10T02:30:41.126Z,2.43
2022-09-10T02:33:12.078Z,2.13
2022-09-10T02:35:41.696Z,2.67
2022-09-10T02:38:11.347Z,2.07
2022-09-10T02:40:43.288Z,2.40
2022-09-10T02:43:13.342Z,2.50
2022-09-10T02:45:46.294Z,2.93
2022-09-10T02:48:17.482Z,2.73
2022-09-10T02:50:48.476Z,3.20
2022-09-10T02:53:18.139Z,2.70
2022-09-10T02:55:48.338Z,3.37
2022-09-10T02:58:19.153Z,2.63
2022-09-10T03:00:51.739Z,3.00
2022-09-10T03:03:21.423Z,3.10
2022-09-10T03:05:51.046Z,2.70
2022-09-10T03:08:20.649Z,3.03
2022-09-10T03:10:51.051Z,3.10
2022-09-10T03:13:20.683Z,2.90
2022-09-10T03:15:52.925Z,2.77
2022-09-10T03:18:23.222Z,2.90
2022-09-10T03:20:53.426Z,3.23
2022-09-10T03:23:23.606Z,3.10
2022-09-10T03:25:53.206Z,3.50
2022-09-10T03:28:28.408Z,2.73
2022-09-10T03:31:01.251Z,3.23
2022-09-10T03:33:34.044Z,2.83
2022-09-10T03:36:03.818Z,2.83
2022-09-10T03:38:34.796Z,3.03
2022-09-10T03:41:05.413Z,3.40
2022-09-10T03:43:35.320Z,3.37
2022-09-10T03:46:12.112Z,2.60
2022-09-10T03:48:45.583Z,3.33
2022-09-10T03:51:16.131Z,3.47
2022-09-10T03:53:46.117Z,3.60
2022-09-10T03:56:19.959Z,3.47
2022-09-10T03:58:50.339Z,3.33
2022-09-10T04:01:22.853Z,3.70
2022-09-10T04:03:52.455Z,3.57
2022-09-10T04:06:22.221Z,3.33
2022-09-10T04:08:52.823Z,3.87
2022-09-10T04:11:27.360Z,3.30
2022-09-10T04:13:58.249Z,3.47
2022-09-10T04:16:32.236Z,3.77
2022-09-10T04:19:01.853Z,3.20
2022-09-10T04:21:32.345Z,3.67
2022-09-10T04:24:02.107Z,2.90
2022-09-10T04:26:32.459Z,3.47
2022-09-10T04:29:02.186Z,3.67
2022-09-10T04:31:34.446Z,2.90
2022-09-10T04:34:12.132Z,2.83
2022-09-10T04:36:41.823Z,3.40
2022-09-10T04:39:12.096Z,3.07
2022-09-10T04:41:41.852Z,4.10
2022-09-10T04:44:11.797Z,2.57
2022-09-10T04:46:44.979Z,2.93
2022-09-10T04:49:14.579Z,3.23
2022-09-10T04:51:44.171Z,3.20
2022-09-10T04:54:15.666Z,3.10
2022-09-10T04:56:49.666Z,3.17
2022-09-10T04:59:19.320Z,3.00
2022-09-10T05:01:52.887Z,2.97
2022-09-10T05:04:22.627Z,3.30
2022-09-10T05:06:53.427Z,2.50
2022-09-10T05:09:23.512Z,2.77
2022-09-10T05:11:53.142Z,3.47
2022-09-10T05:15:16.028Z,3.20
2022-09-10T05:17:48.269Z,2.97
2022-09-10T05:20:19.086Z,2.67
2022-09-10T05:22:53.108Z,2.60
2022-09-10T05:25:22.732Z,2.57
2022-09-10T05:27:52.853Z,3.10
2022-09-10T05:30:24.934Z,2.87
2022-09-10T05:32:58.056Z,2.43
2022-09-10T05:35:29.066Z,2.20
2022-09-10T05:37:59.118Z,2.90
2022-09-10T05:40:29.239Z,2.40
2022-09-10T05:43:00.276Z,2.10
2022-09-10T05:45:30.150Z,2.30
2022-09-10T05:48:03.933Z,2.20
2022-09-10T05:50:34.223Z,2.00
2022-09-10T05:53:03.792Z,1.87
2022-09-10T05:55:33.664Z,2.40
2022-09-10T05:58:04.397Z,1.97
2022-09-10T06:00:37.540Z,2.57
2022-09-10T06:03:10.484Z,2.37
2022-09-10T06:05:51.270Z,2.37
2022-09-10T06:08:25.449Z,2.13
2022-09-10T06:10:58.644Z,2.40
2022-09-10T06:13:30.744Z,2.40
2022-09-10T06:16:01.231Z,2.30
2022-09-10T06:18:34.514Z,2.67
2022-09-10T06:21:07.337Z,2.40
2022-09-10T06:23:37.246Z,2.53
2022-09-10T06:26:09.025Z,2.57
2022-09-10T06:28:41.701Z,2.60
2022-09-10T06:31:17.052Z,2.23
2022-09-10T06:33:51.500Z,2.13
2022-09-10T06:36:24.968Z,2.30
2022-09-10T06:38:58.172Z,2.30
2022-09-10T06:41:31.026Z,1.90
2022-09-10T06:44:09.000Z,2.10
2022-09-10T06:47:39.071Z,2.40
2022-09-10T06:49:36.437Z,2.03
2022-09-10T06:52:08.472Z,2.53
2022-09-10T06:54:38.233Z,2.60
2022-09-10T06:57:29.373Z,2.50
2022-09-10T06:59:59.064Z,2.43
2022-09-10T07:02:30.985Z,2.17
2022-09-10T07:05:04.475Z,2.80
2022-09-10T07:07:34.036Z,2.10
2022-09-10T07:10:07.494Z,2.50
2022-09-10T07:12:38.384Z,1.83
2022-09-10T07:15:12.057Z,1.80
2022-09-10T07:17:41.882Z,2.57
2022-09-10T07:20:16.681Z,1.93
2022-09-10T07:22:49.990Z,1.40
2022-09-10T07:25:23.681Z,1.90
2022-09-10T07:28:19.698Z,1.97
2022-09-10T07:30:50.432Z,1.77
2022-09-10T07:33:20.085Z,1.63
2022-09-10T07:35:52.454Z,1.97
2022-09-10T07:38:22.762Z,1.90
2022-09-10T07:40:52.800Z,1.87
2022-09-10T07:43:22.787Z,2.20
2022-09-10T07:45:54.688Z,2.30
2022-09-10T07:48:25.360Z,2.00
2022-09-10T07:51:03.897Z,1.80
2022-09-10T07:53:34.411Z,1.83
2022-09-10T07:56:08.484Z,1.80
2022-09-10T07:58:41.185Z,1.60
2022-09-10T08:01:14.253Z,1.83
2022-09-10T08:03:45.902Z,1.67
2022-09-10T08:06:21.126Z,1.60
2022-09-10T08:08:52.413Z,1.60
2022-09-10T08:11:24.191Z,1.63
2022-09-10T08:13:57.004Z,1.80
2022-09-10T08:16:30.481Z,1.43
2022-09-10T08:19:08.453Z,1.13
2022-09-10T08:21:42.087Z,1.70
2022-09-10T08:24:14.021Z,1.60
2022-09-10T08:26:46.226Z,1.77
2022-09-10T08:29:16.203Z,1.50
2022-09-10T08:31:47.476Z,1.60
2022-09-10T08:34:29.786Z,1.80
2022-09-10T08:37:10.986Z,1.60
2022-09-10T08:39:42.998Z,1.50
2022-09-10T08:42:22.517Z,1.70
2022-09-10T08:44:57.662Z,2.20
2022-09-10T08:47:40.878Z,1.60
2022-09-10T08:50:25.478Z,1.90
2022-09-10T08:53:06.303Z,1.27
2022-09-10T08:55:42.254Z,2.00
2022-09-10T08:58:19.111Z,1.80
2022-09-10T09:00:58.553Z,1.40
2022-09-10T09:03:37.457Z,1.30
2022-09-10T09:06:13.007Z,2.53
2022-09-10T09:08:51.866Z,1.77
2022-09-10T09:11:36.298Z,1.53
2022-09-10T09:14:25.075Z,1.90
2022-09-10T09:17:08.788Z,1.83
2022-09-10T09:19:47.826Z,1.40
2022-09-10T09:22:21.176Z,1.33
2022-09-10T09:25:00.750Z,1.53
2022-09-10T09:27:36.380Z,1.57
2022-09-10T09:30:09.005Z,1.40
2022-09-10T09:32:46.080Z,2.60
2022-09-10T09:35:30.209Z,1.80
2022-09-10T09:38:22.297Z,1.60
2022-09-10T09:40:58.876Z,1.30
2022-09-10T09:43:40.326Z,2.00
2022-09-10T09:46:16.752Z,1.67
2022-09-10T09:48:53.571Z,1.87
2022-09-10T09:51:27.018Z,1.67
2022-09-10T09:54:25.714Z,1.50
2022-09-10T09:56:54.831Z,1.47
2022-09-10T09:59:30.018Z,1.57
2022-09-10T10:02:07.121Z,1.40
2022-09-10T10:04:41.513Z,1.30
2022-09-10T10:07:14.204Z,1.40
2022-09-10T10:09:46.717Z,1.60
2022-09-10T10:12:25.073Z,1.30
2022-09-10T10:14:54.753Z,2.00
2022-09-10T10:17:37.371Z,2.20
2022-09-10T10:20:13.725Z,2.13
2022-09-10T10:22:44.813Z,2.60
2022-09-10T10:25:40.424Z,3.57
2022-09-10T10:28:25.392Z,3.10
2022-09-10T10:30:56.345Z,2.83
2022-09-10T10:33:30.818Z,2.77
2022-09-10T10:36:12.378Z,2.70
2022-09-10T10:38:44.240Z,3.10
2022-09-10T10:41:43.544Z,3.60
2022-09-10T10:44:35.221Z,4.23
2022-09-10T10:47:20.207Z,4.07
2022-09-10T10:50:03.400Z,4.30
2022-09-10T10:52:39.480Z,3.80
2022-09-10T10:55:20.042Z,3.77
2022-09-10T10:58:06.827Z,3.97
2022-09-10T11:00:50.031Z,4.53
2022-09-10T11:03:26.940Z,4.20
2022-09-10T11:06:01.376Z,3.90
2022-09-10T11:08:37.689Z,5.40
2022-09-10T11:11:14.709Z,4.37
2022-09-10T11:13:51.311Z,4.63
2022-09-10T11:16:29.631Z,3.70
2022-09-10T11:19:04.538Z,4.10
2022-09-10T11:21:40.314Z,4.23
2022-09-10T11:24:17.372Z,4.43
2022-09-10T11:26:51.104Z,4.27
2022-09-10T11:29:34.108Z,4.27
2022-09-10T11:32:11.285Z,5.00
2022-09-10T11:34:51.492Z,4.97
2022-09-10T11:37:27.316Z,4.37
2022-09-10T11:40:01.998Z,4.70
2022-09-10T11:42:39.745Z,4.80
2022-09-10T11:45:22.078Z,4.37
2022-09-10T11:48:07.587Z,4.63
2022-09-10T11:50:42.959Z,4.30
2022-09-10T11:53:17.532Z,4.37
2022-09-10T11:56:12.175Z,4.83
2022-09-10T11:58:52.869Z,5.07
2022-09-10T12:01:38.987Z,4.60
2022-09-10T12:04:42.714Z,3.67
2022-09-10T12:07:22.031Z,3.83
2022-09-10T12:10:05.009Z,4.40
2022-09-10T12:12:43.320Z,4.53
2022-09-10T12:15:21.276Z,4.50
2022-09-10T12:17:57.070Z,3.70
2022-09-10T12:20:33.412Z,4.37
2022-09-10T12:23:03.330Z,4.23
2022-09-10T12:25:35.049Z,5.07
2022-09-10T12:28:08.270Z,4.03
2022-09-10T12:31:09.109Z,3.80
2022-09-10T12:34:12.589Z,4.57
2022-09-10T12:37:20.061Z,4.33
2022-09-10T12:40:41.477Z,4.03
2022-09-10T12:43:59.876Z,4.40
2022-09-10T12:46:32.034Z,4.20
2022-09-10T12:49:16.907Z,5.10
2022-09-10T12:52:06.609Z,4.10
2022-09-10T12:54:52.838Z,4.17
2022-09-10T12:57:35.235Z,3.33
2022-09-10T13:00:19.983Z,3.20
2022-09-10T13:02:59.091Z,3.00
2022-09-10T13:05:37.991Z,3.37
2022-09-10T13:08:20.492Z,2.23
2022-09-10T13:10:58.398Z,2.50
2022-09-10T13:13:39.026Z,2.25
2022-09-10T13:16:20.437Z,2.33
2022-09-10T13:18:55.066Z,2.47
2022-09-10T13:21:54.893Z,2.80
2022-09-10T13:24:39.775Z,3.10
2022-09-10T13:27:23.313Z,2.83
2022-09-10T13:30:12.245Z,2.70
2022-09-10T13:32:46.111Z,2.73
2022-09-10T13:35:35.078Z,3.20
2022-09-10T13:38:22.925Z,3.03
2022-09-10T13:41:06.458Z,2.60
2022-09-10T13:43:59.452Z,2.47
2022-09-10T13:46:40.282Z,2.60
2022-09-10T13:49:16.748Z,2.80
2022-09-10T13:51:53.178Z,2.80
2022-09-10T13:54:35.037Z,3.17
2022-09-10T13:57:11.434Z,3.23
2022-09-10T13:59:44.165Z,3.40
2022-09-10T14:02:19.653Z,3.23
2022-09-10T14:04:51.791Z,3.20
2022-09-10T14:07:25.454Z,4.23
2022-09-10T14:09:59.625Z,3.37
2022-09-10T14:12:31.422Z,3.50
2022-09-10T14:15:05.135Z,2.97
2022-09-10T14:17:45.144Z,2.70
2022-09-10T14:20:24.999Z,3.50
2022-09-10T14:22:59.821Z,2.70
2022-09-10T14:25:35.470Z,2.90
2022-09-10T14:28:21.838Z,2.80
2022-09-10T14:30:53.235Z,3.50
2022-09-10T14:33:35.218Z,3.13
2022-09-10T14:36:17.598Z,3.13
2022-09-10T14:38:55.721Z,3.00
2022-09-10T14:41:27.474Z,2.77
2022-09-10T14:44:20.451Z,2.80
2022-09-10T14:46:52.726Z,2.07
2022-09-10T14:49:29.102Z,2.20
2022-09-10T14:51:59.907Z,2.43
2022-09-10T14:54:29.964Z,2.30
2022-09-10T14:57:01.236Z,2.23
2022-09-10T14:59:34.080Z,2.43
2022-09-10T15:02:05.799Z,2.13
2022-09-10T15:04:38.906Z,1.87
2022-09-10T15:07:08.574Z,1.80
2022-09-10T15:09:38.172Z,1.83
2022-09-10T15:12:12.059Z,2.00
2022-09-10T15:14:42.103Z,2.20
2022-09-10T15:17:15.808Z,1.70
2022-09-10T15:19:49.969Z,2.00
2022-09-10T15:22:24.835Z,1.70
2022-09-10T15:25:11.437Z,2.10
2022-09-10T15:27:41.873Z,1.80
2022-09-10T15:30:12.520Z,2.23
2022-09-10T15:32:42.169Z,2.20
2022-09-10T15:35:14.484Z,2.27
2022-09-10T15:37:44.257Z,2.50
2022-09-10T15:40:14.633Z,2.27
2022-09-10T15:42:44.349Z,2.70
2022-09-10T15:45:15.088Z,2.27
2022-09-10T15:47:44.735Z,2.10
2022-09-10T15:50:17.139Z,1.87
2022-09-10T15:52:47.454Z,2.40
2022-09-10T15:55:17.493Z,2.60
2022-09-10T15:57:47.279Z,2.30
2022-09-10T16:00:17.819Z,3.20
2022-09-10T16:02:47.988Z,2.77
2022-09-10T16:05:21.141Z,3.13
2022-09-10T16:07:50.781Z,3.03
2022-09-10T16:10:20.542Z,2.90
2022-09-10T16:12:50.100Z,2.70
2022-09-10T16:15:19.889Z,4.00
2022-09-10T16:17:49.538Z,5.70
2022-09-10T16:20:22.217Z,7.63
2022-09-10T16:22:53.798Z,10.70
2022-09-10T16:25:23.461Z,4.00
2022-09-10T16:27:53.077Z,4.80
2022-09-10T16:30:22.779Z,4.97
2022-09-10T16:32:52.869Z,3.50
2022-09-10T16:35:26.501Z,2.57
2022-09-10T16:37:56.364Z,2.00
2022-09-10T16:40:25.928Z,2.00
2022-09-10T16:42:55.759Z,1.67
2022-09-10T16:45:25.573Z,1.57
2022-09-10T16:48:03.483Z,2.90
2022-09-10T16:50:36.394Z,3.10
2022-09-10T16:53:10.153Z,1.90
2022-09-10T16:55:41.510Z,1.60
2022-09-10T16:58:11.122Z,1.50
2022-09-10T17:00:42.784Z,1.73
2022-09-10T17:03:12.373Z,1.50
2022-09-10T17:05:44.577Z,1.50
2022-09-10T17:08:14.137Z,1.20
2022-09-10T17:10:44.682Z,1.60
2022-09-10T17:13:14.427Z,1.37
2022-09-10T17:15:44.683Z,1.90
2022-09-10T17:18:15.037Z,2.87
2022-09-10T17:20:48.217Z,1.80
2022-09-10T17:23:18.749Z,1.50
2022-09-10T17:25:48.368Z,1.60
2022-09-10T17:28:18.030Z,1.40
2022-09-10T17:30:47.913Z,1.60
2022-09-10T17:33:18.169Z,1.70
2022-09-10T17:35:58.064Z,1.70
2022-09-10T17:38:27.690Z,2.00
2022-09-10T17:40:58.175Z,1.43
2022-09-10T17:43:27.898Z,1.70
2022-09-10T17:45:58.312Z,1.20
2022-09-10T17:48:28.359Z,1.57
2022-09-10T17:51:00.779Z,1.43
2022-09-10T17:53:30.630Z,1.40
2022-09-10T17:56:04.704Z,1.43
2022-09-10T17:58:35.220Z,2.10
2022-09-10T18:01:08.284Z,2.20
2022-09-10T18:03:38.540Z,1.53
2022-09-10T18:06:12.660Z,2.30
2022-09-10T18:08:42.691Z,2.00
2022-09-10T18:11:14.183Z,2.10
2022-09-10T18:13:44.429Z,2.10
2022-09-10T18:16:16.625Z,2.10
2022-09-10T18:18:47.563Z,1.67
2022-09-10T18:21:21.196Z,1.50
2022-09-10T18:23:54.403Z,1.90
2022-09-10T18:26:26.746Z,1.87
2022-09-10T18:28:59.488Z,1.73
2022-09-10T18:31:30.952Z,1.60
2022-09-10T18:34:01.531Z,2.03
2022-09-10T18:36:34.721Z,1.87
2022-09-10T18:39:05.185Z,1.93
2022-09-10T18:41:36.950Z,1.80
2022-09-10T18:44:08.453Z,1.90
2022-09-10T18:46:38.767Z,1.90
2022-09-10T18:49:08.478Z,2.33
2022-09-10T18:51:42.225Z,1.93
2022-09-10T18:54:13.383Z,1.63
2022-09-10T18:56:45.068Z,1.87
2022-09-10T18:59:17.314Z,2.00
2022-09-10T19:01:47.156Z,2.03
2022-09-10T19:04:20.095Z,1.93
2022-09-10T19:06:52.790Z,1.90
2022-09-10T19:09:24.281Z,1.87
2022-09-10T19:11:56.620Z,1.60
2022-09-10T19:14:29.416Z,1.90
2022-09-10T19:17:00.410Z,1.97
2022-09-10T19:19:31.832Z,1.83
2022-09-10T19:22:07.242Z,1.60
2022-09-10T19:24:54.566Z,1.67
2022-09-10T19:27:24.958Z,1.77
2022-09-10T19:29:55.865Z,1.80
2022-09-10T19:32:25.453Z,1.80
2022-09-10T19:34:55.466Z,2.43
2022-09-10T19:37:28.560Z,2.10
2022-09-10T19:39:59.117Z,2.40
2022-09-10T19:42:28.897Z,2.00
2022-09-10T19:44:58.467Z,2.33
2022-09-10T19:47:28.093Z,2.33
2022-09-10T19:49:59.067Z,2.13
2022-09-10T19:52:32.709Z,2.37
2022-09-10T19:55:02.984Z,2.10
2022-09-10T19:57:33.846Z,2.33
2022-09-10T20:00:03.521Z,2.07
2022-09-10T20:02:41.298Z,2.43
2022-09-10T20:05:11.745Z,2.17
2022-09-10T20:07:44.008Z,2.30
2022-09-10T20:10:13.646Z,1.63
2022-09-10T20:12:43.253Z,1.90
2022-09-10T20:15:13.381Z,2.77
2022-09-10T20:17:42.962Z,2.37
2022-09-10T20:20:13.493Z,2.40
2022-09-10T20:22:45.661Z,2.63
2022-09-10T20:25:15.769Z,3.03
2022-09-10T20:27:45.378Z,3.63
2022-09-10T20:30:15.401Z,3.40
2022-09-10T20:32:45.750Z,3.53
2022-09-10T20:35:15.364Z,3.83
2022-09-10T20:37:51.650Z,3.93
2022-09-10T20:40:21.369Z,4.40
2022-09-10T20:42:54.844Z,4.00
2022-09-10T20:45:24.556Z,4.70
2022-09-10T20:47:54.120Z,4.10
2022-09-10T20:50:23.987Z,3.90
2022-09-10T20:52:56.109Z,3.87
2022-09-10T20:55:25.680Z,4.87
2022-09-10T20:57:55.285Z,4.43
2022-09-10T21:00:25.359Z,3.40
2022-09-10T21:02:55.192Z,3.60
2022-09-10T21:05:25.883Z,4.07
2022-09-10T21:07:59.127Z,4.00
2022-09-10T21:10:28.689Z,4.00
2022-09-10T21:12:58.805Z,5.10
2022-09-10T21:15:30.082Z,4.40
2022-09-10T21:18:00.160Z,4.50
2022-09-10T21:20:29.756Z,4.80
2022-09-10T21:23:02.220Z,4.47
2022-09-10T21:25:31.914Z,5.57
2022-09-10T21:28:01.523Z,5.27
2022-09-10T21:30:31.234Z,5.70
2022-09-10T21:33:00.817Z,5.90
2022-09-10T21:35:31.152Z,4.93
2022-09-10T21:38:03.258Z,5.10
2022-09-10T21:40:32.798Z,5.23
2022-09-10T21:43:04.182Z,7.13
2022-09-10T21:45:33.729Z,6.90
2022-09-10T21:48:03.254Z,7.47
2022-09-10T21:50:32.818Z,6.60
2022-09-10T21:53:04.904Z,6.63
2022-09-10T21:55:34.438Z,6.90
2022-09-10T21:58:03.965Z,7.13
2022-09-10T22:00:33.584Z,7.30
2022-09-10T22:03:04.286Z,7.53
2022-09-10T22:05:33.854Z,8.13
2022-09-10T22:08:07.066Z,7.57
2022-09-10T22:10:37.027Z,7.10
2022-09-10T22:13:06.545Z,7.80
2022-09-10T22:15:41.298Z,7.20
2022-09-10T22:18:11.965Z,7.73
2022-09-10T22:20:41.492Z,8.23
2022-09-10T22:23:14.034Z,7.80
2022-09-10T22:25:43.624Z,7.23
2022-09-10T22:28:13.128Z,6.67
2022-09-10T22:30:42.643Z,7.30
2022-09-10T22:33:12.176Z,7.03
2022-09-10T22:35:41.717Z,6.80
2022-09-10T22:38:19.085Z,6.87
2022-09-10T22:40:49.208Z,6.00
2022-09-10T22:43:19.489Z,6.23
2022-09-10T22:45:49.130Z,6.60
2022-09-10T22:48:18.658Z,6.83
2022-09-10T22:50:48.300Z,7.77
2022-09-10T22:53:21.534Z,7.03
2022-09-10T22:55:51.054Z,8.07
2022-09-10T22:58:20.582Z,8.00
2022-09-10T23:00:50.124Z,8.03
2022-09-10T23:03:20.545Z,7.67
2022-09-10T23:05:50.498Z,7.93
2022-09-10T23:08:22.610Z,7.93
2022-09-10T23:10:52.170Z,8.47
2022-09-10T23:13:21.838Z,9.90
2022-09-10T23:15:51.977Z,9.90
2022-09-10T23:18:21.513Z,10.03
2022-09-10T23:20:51.029Z,9.50
2022-09-10T23:23:23.129Z,9.63
2022-09-10T23:25:52.702Z,9.77
2022-09-10T23:28:22.218Z,10.90
2022-09-10T23:30:52.150Z,10.10
2022-09-10T23:33:21.820Z,9.97
2022-09-10T23:35:52.498Z,9.90
2022-09-10T23:38:24.784Z,9.63
2022-09-10T23:40:54.432Z,10.80
2022-09-10T23:43:24.421Z,10.63
2022-09-10T23:45:54.106Z,11.40
2022-09-10T23:48:25.048Z,10.87
2022-09-10T23:50:55.466Z,11.80
2022-09-10T23:53:28.683Z,13.10
2022-09-10T23:55:58.839Z,12.07
2022-09-10T23:58:28.396Z,13.20
